Time;durP1;ratioP1;P1;durP2;ratioP2;P2;SDS_P1;SDS_P2;PMS_P1;PMS_P2;Temp;Humidity;BMP_temperature;BMP_pressure;BME280_temperature;BME280_humidity;BME280_pressure;Samples;Min_cycle;Max_cycle;Signal;HPM_P1;HPM_P2
2021/12/17 00:04:37;;;;;;;19.50;10.63;;;3.10;96.30;;;;;;4861782;29;20413;-76
2021/12/17 00:07:05;;;;;;;19.33;10.70;;;3.10;96.30;;;;;;4861093;29;20410;-76
2021/12/17 00:09:31;;;;;;;19.10;9.80;;;3.20;96.30;;;;;;4861284;29;20928;-77
2021/12/17 00:11:57;;;;;;;18.03;9.97;;;3.20;96.30;;;;;;4861104;29;20561;-76
2021/12/17 00:14:30;;;;;;;14.77;10.07;;;3.20;96.30;;;;;;4859979;29;20215;-77
2021/12/17 00:17:00;;;;;;;20.07;10.47;;;3.20;96.30;;;;;;4860949;29;20159;-76
2021/12/17 00:49:18;;;;;;;17.90;10.07;;;3.50;96.30;;;;;;4860865;29;20862;-78
2021/12/17 00:54:22;;;;;;;17.27;10.10;;;3.50;96.30;;;;;;4860806;29;20426;-77
2021/12/17 00:56:51;;;;;;;20.60;8.80;;;3.50;96.30;;;;;;4859026;29;20415;-78
2021/12/17 00:59:17;;;;;;;16.13;10.00;;;3.40;96.30;;;;;;4860416;29;20471;-77
2021/12/17 05:01:36;;;;;;;22.93;14.83;;;3.70;96.30;;;;;;5293205;23;20486;-77
2021/12/17 05:04:03;;;;;;;24.37;15.70;;;3.70;96.30;;;;;;4879002;29;20419;-77
2021/12/17 05:06:30;;;;;;;28.10;12.70;;;3.70;96.30;;;;;;4878702;29;20181;-77
2021/12/17 05:09:01;;;;;;;21.57;13.83;;;3.70;96.30;;;;;;4878825;29;20806;-77
2021/12/17 05:18:13;;;;;;;30.37;14.30;;;3.60;96.30;;;;;;4878815;29;20433;-77
2021/12/17 05:19:52;;;;;;;16.50;9.73;;;3.60;96.30;;;;;;4883109;29;20416;-77
2021/12/17 07:08:05;;;;;;;42.87;16.13;;;2.80;96.30;;;;;;5158613;23;21028;-76
2021/12/17 07:10:14;;;;;;;27.43;15.93;;;2.80;96.30;;;;;;4899386;29;20504;-76
2021/12/17 07:18:52;;;;;;;44.63;17.50;;;2.70;96.30;;;;;;4880217;29;20485;-76
2021/12/17 07:34:15;;;;;;;66.60;15.27;;;2.70;96.30;;;;;;5416887;23;20481;-76
2021/12/17 07:36:56;;;;;;;36.40;14.60;;;2.60;96.30;;;;;;4880040;29;21028;-77
2021/12/17 07:39:22;;;;;;;32.57;14.20;;;2.60;96.30;;;;;;4890132;29;20440;-76
2021/12/17 07:41:48;;;;;;;85.00;16.10;;;2.50;96.30;;;;;;4897501;29;20859;-76
2021/12/17 07:44:13;;;;;;;61.63;13.53;;;2.50;96.30;;;;;;4898918;29;20177;-76
2021/12/17 07:46:39;;;;;;;95.53;15.20;;;2.40;96.30;;;;;;4898185;29;20704;-76
2021/12/17 07:49:04;;;;;;;46.53;14.13;;;2.40;96.30;;;;;;4899052;29;20181;-76
2021/12/17 09:38:01;;;;;;;27.97;16.50;;;2.90;96.30;;;;;;5127155;23;20486;-76
2021/12/17 12:18:18;;;;;;;29.07;18.97;;;3.60;96.30;;;;;;4878503;29;20843;-77
2021/12/17 12:20:50;;;;;;;42.37;21.10;;;3.70;96.30;;;;;;4879622;29;20438;-77
2021/12/17 12:23:41;;;;;;;29.43;18.00;;;3.70;96.30;;;;;;4879471;29;20406;-77
2021/12/17 12:26:11;;;;;;;37.43;20.50;;;3.70;96.30;;;;;;4879273;29;20426;-77
2021/12/17 12:28:46;;;;;;;36.20;20.47;;;3.60;96.30;;;;;;4880103;29;20402;-77
2021/12/17 12:36:44;;;;;;;27.97;19.07;;;3.50;96.30;;;;;;5458229;23;20557;-78
2021/12/17 12:39:17;;;;;;;28.63;16.70;;;3.50;96.30;;;;;;4878275;29;20418;-77
2021/12/17 12:41:47;;;;;;;24.97;17.80;;;3.50;96.30;;;;;;4879181;29;20444;-78
2021/12/17 12:44:13;;;;;;;25.13;16.47;;;3.50;96.30;;;;;;4877899;29;20422;-77
2021/12/17 12:46:49;;;;;;;28.47;17.17;;;3.50;96.30;;;;;;4879149;29;20414;-77
2021/12/17 12:50:02;;;;;;;25.30;17.20;;;3.50;96.30;;;;;;4879100;29;20201;-77
2021/12/17 12:52:39;;;;;;;26.57;15.13;;;3.50;96.30;;;;;;4843412;29;20477;-77
2021/12/17 12:55:06;;;;;;;23.23;16.17;;;3.40;96.30;;;;;;4877776;29;20446;-77
2021/12/17 12:57:34;;;;;;;30.30;17.03;;;3.50;96.30;;;;;;4877694;29;20420;-77
2021/12/17 13:00:05;;;;;;;23.80;16.80;;;3.50;96.30;;;;;;4878888;29;20475;-77
2021/12/17 13:02:31;;;;;;;27.00;16.97;;;3.50;96.30;;;;;;4878032;29;20442;-77
2021/12/17 13:04:59;;;;;;;24.30;16.30;;;3.50;96.30;;;;;;4879324;29;20832;-77
2021/12/17 13:07:41;;;;;;;26.07;17.87;;;3.50;96.30;;;;;;4878933;29;20922;-77
2021/12/17 13:10:28;;;;;;;30.13;16.07;;;3.50;96.30;;;;;;4879053;29;20433;-77
2021/12/17 13:13:19;;;;;;;22.10;15.20;;;3.50;96.30;;;;;;4877766;29;20448;-77
2021/12/17 13:16:08;;;;;;;27.30;16.43;;;3.50;96.30;;;;;;4878472;29;20414;-77
2021/12/17 13:24:13;;;;;;;24.60;16.20;;;3.50;96.30;;;;;;4878801;29;20425;-77
2021/12/17 13:26:45;;;;;;;28.17;16.80;;;3.50;96.30;;;;;;4878613;29;20403;-77
2021/12/17 13:29:18;;;;;;;25.67;15.07;;;3.50;96.30;;;;;;4877521;29;20415;-77
2021/12/17 13:32:03;;;;;;;27.00;14.20;;;3.40;96.30;;;;;;4878473;29;20445;-77
2021/12/17 13:34:39;;;;;;;19.57;13.73;;;3.40;96.30;;;;;;4878552;29;20421;-77
2021/12/17 13:37:10;;;;;;;26.90;15.03;;;3.30;96.30;;;;;;4878268;29;20437;-77
2021/12/17 13:39:50;;;;;;;20.80;14.50;;;3.40;96.30;;;;;;4878360;29;20430;-76
2021/12/17 13:42:23;;;;;;;21.73;13.60;;;3.40;96.30;;;;;;4878322;29;20524;-77
2021/12/17 13:44:49;;;;;;;22.40;12.73;;;3.30;96.30;;;;;;4878469;29;20406;-76
2021/12/17 13:47:21;;;;;;;23.83;14.70;;;3.30;96.30;;;;;;4876930;29;20970;-77
2021/12/17 13:50:13;;;;;;;24.63;14.53;;;3.40;96.30;;;;;;4876946;29;20418;-77
2021/12/17 13:52:55;;;;;;;20.77;14.40;;;3.40;96.30;;;;;;4863158;29;21026;-77
2021/12/17 13:55:46;;;;;;;24.00;14.73;;;3.40;96.30;;;;;;4858448;29;20861;-76
2021/12/17 13:58:19;;;;;;;25.80;15.73;;;3.40;96.30;;;;;;4857815;29;20423;-77
2021/12/17 14:00:51;;;;;;;22.50;15.00;;;3.40;96.30;;;;;;4859597;29;20439;-77
2021/12/17 14:03:19;;;;;;;23.03;12.87;;;3.40;96.30;;;;;;4859637;29;20411;-77
2021/12/17 14:05:51;;;;;;;21.43;13.90;;;3.40;96.30;;;;;;4859308;29;20419;-76
2021/12/17 14:08:21;;;;;;;23.37;13.40;;;3.40;96.30;;;;;;4859535;29;20400;-77
2021/12/17 14:10:49;;;;;;;21.90;14.33;;;3.40;96.30;;;;;;4859335;29;20435;-76
2021/12/17 14:13:24;;;;;;;24.67;15.30;;;3.40;96.30;;;;;;4858344;29;20462;-76
2021/12/17 14:15:52;;;;;;;29.97;15.17;;;3.30;96.30;;;;;;4860895;29;20425;-76
2021/12/17 14:18:21;;;;;;;29.03;14.77;;;3.40;96.30;;;;;;4877834;29;20419;-77
2021/12/17 14:20:56;;;;;;;25.03;14.63;;;3.40;96.30;;;;;;4876565;29;20438;-76
2021/12/17 14:23:27;;;;;;;24.23;15.80;;;3.30;96.30;;;;;;4876916;29;20432;-77
2021/12/17 14:25:57;;;;;;;34.73;14.60;;;3.30;96.30;;;;;;4876411;29;20426;-76
2021/12/17 14:28:30;;;;;;;22.00;14.13;;;3.30;96.30;;;;;;4879973;29;20573;-76
2021/12/17 14:31:00;;;;;;;19.67;14.20;;;3.30;96.30;;;;;;4885689;29;20814;-76
2021/12/17 14:33:49;;;;;;;23.40;14.40;;;3.30;96.30;;;;;;4900094;29;21152;-77
2021/12/17 14:36:39;;;;;;;26.30;16.03;;;3.30;96.30;;;;;;4898591;29;20448;-78
2021/12/17 14:39:15;;;;;;;21.70;14.60;;;3.30;96.30;;;;;;4875145;29;20955;-78
2021/12/17 14:41:53;;;;;;;25.40;14.57;;;3.30;96.30;;;;;;4880881;29;20533;-78
2021/12/17 14:47:07;;;;;;;19.67;13.00;;;3.30;96.30;;;;;;4881292;29;20485;-79
2021/12/17 15:03:08;;;;;;;23.20;12.47;;;3.40;96.30;;;;;;4881181;29;20825;-78
2021/12/17 15:05:33;;;;;;;21.60;13.47;;;3.50;96.30;;;;;;4879646;29;20426;-77
2021/12/17 15:08:00;;;;;;;17.10;11.50;;;3.50;96.30;;;;;;4879753;29;20422;-78
2021/12/17 15:10:26;;;;;;;23.97;11.73;;;3.50;96.30;;;;;;4879348;29;20639;-79
2021/12/17 15:12:56;;;;;;;19.63;11.97;;;3.50;96.30;;;;;;4879417;29;20517;-79
2021/12/17 15:15:24;;;;;;;23.67;12.30;;;3.50;96.30;;;;;;4880819;29;20158;-79
2021/12/17 15:17:52;;;;;;;14.33;10.07;;;3.40;96.30;;;;;;4879347;29;20414;-79
2021/12/17 15:20:20;;;;;;;20.13;11.50;;;3.50;96.30;;;;;;4870576;29;20513;-79
2021/12/17 15:22:46;;;;;;;14.83;11.03;;;3.40;96.30;;;;;;4860769;29;20435;-79
2021/12/17 15:25:13;;;;;;;17.50;11.40;;;3.50;96.30;;;;;;4864140;29;20796;-79
2021/12/17 15:27:39;;;;;;;15.90;10.57;;;3.40;96.30;;;;;;4874224;29;20502;-78
2021/12/17 15:30:21;;;;;;;13.43;9.60;;;3.40;96.30;;;;;;4890583;29;20457;-78
2021/12/17 15:32:48;;;;;;;20.23;13.20;;;3.40;96.30;;;;;;4881085;29;20458;-77
2021/12/17 15:35:17;;;;;;;14.07;10.93;;;3.40;96.30;;;;;;4878399;29;20474;-78
2021/12/17 15:37:43;;;;;;;16.43;11.07;;;3.40;96.30;;;;;;4878185;29;20517;-78
2021/12/17 15:40:10;;;;;;;19.00;11.90;;;3.40;96.30;;;;;;4879551;29;20470;-78
2021/12/17 15:42:37;;;;;;;19.40;11.37;;;3.40;96.30;;;;;;4880822;29;20426;-80
2021/12/17 15:45:04;;;;;;;19.97;12.03;;;3.40;96.30;;;;;;4879876;29;20426;-79
2021/12/17 15:47:30;;;;;;;14.60;11.40;;;3.40;96.30;;;;;;4878152;29;20433;-79
2021/12/17 15:49:55;;;;;;;10.67;7.40;;;3.30;96.30;;;;;;4878247;29;20426;-80
2021/12/17 15:52:21;;;;;;;19.40;11.60;;;3.30;96.30;;;;;;4876008;29;20205;-79
2021/12/17 15:54:46;;;;;;;14.87;11.50;;;3.30;96.30;;;;;;4882878;29;20173;-79
2021/12/17 15:57:12;;;;;;;16.33;11.33;;;3.30;96.30;;;;;;4878658;29;20181;-79
2021/12/17 15:59:39;;;;;;;14.43;10.53;;;3.30;96.30;;;;;;4892368;29;20185;-79
2021/12/17 16:02:04;;;;;;;14.30;11.10;;;3.30;96.30;;;;;;4897487;29;20295;-79
2021/12/17 16:04:35;;;;;;;16.30;10.63;;;3.30;96.30;;;;;;4897715;29;20528;-78
2021/12/17 16:07:01;;;;;;;17.73;11.27;;;3.30;96.30;;;;;;4887741;29;20233;-78
2021/12/17 16:10:02;;;;;;;15.97;11.00;;;3.30;96.30;;;;;;4859869;29;20506;-79
2021/12/17 16:23:13;;;;;;;18.30;13.27;;;3.30;96.30;;;;;;4898739;29;20404;-79
2021/12/17 16:25:38;;;;;;;12.27;10.43;;;3.30;96.30;;;;;;4898336;29;20413;-78
2021/12/17 16:28:04;;;;;;;13.33;9.77;;;3.20;96.30;;;;;;4897382;29;20519;-78
2021/12/17 16:30:30;;;;;;;13.10;8.33;;;3.20;96.30;;;;;;4898079;29;20188;-78
2021/12/17 16:32:56;;;;;;;14.83;8.87;;;3.20;96.30;;;;;;4896939;29;20628;-78
2021/12/17 16:35:22;;;;;;;14.77;9.20;;;3.20;96.30;;;;;;4896596;29;20432;-78
2021/12/17 16:37:49;;;;;;;11.43;8.97;;;3.20;96.30;;;;;;4897877;29;20414;-78
2021/12/17 16:40:16;;;;;;;15.03;9.07;;;3.20;96.30;;;;;;4882547;29;20178;-78
2021/12/17 16:42:42;;;;;;;12.33;8.50;;;3.20;96.30;;;;;;4878906;29;20832;-79
2021/12/17 16:47:42;;;;;;;13.80;9.30;;;3.20;96.30;;;;;;4879319;29;20640;-78
2021/12/17 16:50:09;;;;;;;10.90;8.80;;;3.20;96.30;;;;;;4879065;29;20422;-78
2021/12/17 16:52:35;;;;;;;13.57;9.60;;;3.20;96.30;;;;;;4878085;29;20213;-78
2021/12/17 16:55:03;;;;;;;11.20;9.30;;;3.20;96.30;;;;;;4877822;29;20461;-78
2021/12/17 16:57:28;;;;;;;11.13;9.37;;;3.10;96.30;;;;;;4870217;29;20510;-78
2021/12/17 16:59:55;;;;;;;10.23;8.53;;;3.20;96.30;;;;;;4867589;29;20505;-78
2021/12/17 17:02:21;;;;;;;12.67;10.67;;;3.20;96.30;;;;;;4877737;29;20300;-79
2021/12/17 17:04:46;;;;;;;13.90;10.63;;;3.20;96.30;;;;;;4877704;29;20436;-79
2021/12/17 17:07:12;;;;;;;16.70;10.33;;;3.20;96.30;;;;;;4877715;29;20426;-79
2021/12/17 17:09:38;;;;;;;12.37;9.60;;;3.10;96.30;;;;;;4877674;29;20182;-79
2021/12/17 17:12:07;;;;;;;15.33;9.60;;;3.10;96.30;;;;;;4877646;29;20654;-79
2021/12/17 17:14:33;;;;;;;12.43;10.50;;;3.10;96.30;;;;;;4877532;29;20265;-79
2021/12/17 17:17:00;;;;;;;15.97;9.60;;;3.10;96.30;;;;;;4877518;29;20903;-79
2021/12/17 17:19:26;;;;;;;12.93;10.00;;;3.20;96.30;;;;;;4864404;29;20434;-78
2021/12/17 17:21:53;;;;;;;16.43;11.13;;;3.20;96.30;;;;;;4860094;29;20435;-79
2021/12/17 17:24:19;;;;;;;16.00;9.47;;;3.20;96.30;;;;;;4860843;29;20419;-80
2021/12/17 17:26:46;;;;;;;13.23;9.13;;;3.20;96.30;;;;;;4869075;29;20428;-79
2021/12/17 17:29:13;;;;;;;20.40;10.60;;;3.10;96.30;;;;;;4873631;29;20407;-78
2021/12/17 17:31:39;;;;;;;14.93;10.63;;;3.20;96.30;;;;;;4877766;29;20446;-78
2021/12/17 17:34:08;;;;;;;14.93;11.87;;;3.20;96.30;;;;;;4878977;29;20454;-78
2021/12/17 17:36:34;;;;;;;16.97;10.20;;;3.20;96.30;;;;;;4859441;29;20434;-78
2021/12/17 17:39:00;;;;;;;12.47;10.20;;;3.20;96.30;;;;;;4865230;29;20966;-79
2021/12/17 17:41:27;;;;;;;12.33;9.23;;;3.20;96.30;;;;;;4866954;29;20447;-80
2021/12/17 17:43:54;;;;;;;16.07;9.90;;;3.20;96.30;;;;;;4859399;29;20419;-79
2021/12/17 17:46:21;;;;;;;15.30;10.30;;;3.20;96.30;;;;;;4869076;29;20425;-78
2021/12/17 17:48:47;;;;;;;14.50;10.37;;;3.20;96.30;;;;;;4895627;29;20513;-78
2021/12/17 17:51:13;;;;;;;18.07;11.60;;;3.20;96.30;;;;;;4889070;29;20445;-78
2021/12/17 17:53:39;;;;;;;18.00;11.10;;;3.20;96.30;;;;;;4865774;29;20527;-79
2021/12/17 17:56:05;;;;;;;15.53;10.57;;;3.20;96.30;;;;;;4866810;29;20177;-79
2021/12/17 17:58:32;;;;;;;14.40;10.80;;;3.20;96.30;;;;;;4872907;29;20419;-79
2021/12/17 18:00:58;;;;;;;17.23;9.43;;;3.20;96.30;;;;;;4863723;29;20442;-79
2021/12/17 18:03:24;;;;;;;15.67;10.17;;;3.20;96.30;;;;;;4885847;29;20791;-80
2021/12/17 18:05:50;;;;;;;15.57;12.10;;;3.20;96.30;;;;;;4901428;29;20179;-78
2021/12/17 18:08:15;;;;;;;16.23;12.27;;;3.30;96.30;;;;;;4892937;29;20178;-79
2021/12/17 18:10:42;;;;;;;18.40;10.50;;;3.30;96.30;;;;;;4880782;29;20205;-79
2021/12/17 18:13:10;;;;;;;19.27;11.03;;;3.30;96.30;;;;;;4879420;29;20201;-79
2021/12/17 18:15:36;;;;;;;12.70;9.90;;;3.30;96.30;;;;;;4882333;29;20421;-79
2021/12/17 18:18:02;;;;;;;18.70;12.23;;;3.30;96.30;;;;;;4881969;29;20426;-79
2021/12/17 18:20:29;;;;;;;10.33;7.60;;;3.30;96.30;;;;;;4872058;29;20185;-79
2021/12/17 18:22:56;;;;;;;15.03;11.20;;;3.30;96.30;;;;;;4875218;29;20430;-79
2021/12/17 18:25:22;;;;;;;14.53;9.03;;;3.40;96.30;;;;;;4883799;29;20425;-79
2021/12/17 18:27:49;;;;;;;16.57;11.10;;;3.40;96.30;;;;;;4874560;29;20953;-79
2021/12/17 18:30:17;;;;;;;17.30;10.27;;;3.30;96.30;;;;;;4879888;29;20430;-79
2021/12/17 18:32:46;;;;;;;16.87;9.87;;;3.30;96.30;;;;;;4880401;29;20481;-79
2021/12/17 18:35:12;;;;;;;15.30;8.37;;;3.30;96.30;;;;;;4883161;29;20505;-79
2021/12/17 18:37:39;;;;;;;11.67;8.67;;;3.30;96.30;;;;;;4883941;29;20436;-79
2021/12/17 18:40:12;;;;;;;11.87;9.37;;;3.30;96.30;;;;;;4883052;29;20414;-80
2021/12/17 18:45:23;;;;;;;10.20;9.10;;;3.30;96.30;;;;;;4883879;29;20462;-80
2021/12/17 18:47:48;;;;;;;12.20;8.97;;;3.30;96.30;;;;;;4876266;29;20943;-79
2021/12/17 18:50:15;;;;;;;15.67;9.50;;;3.30;96.30;;;;;;4879241;29;20712;-80
2021/12/17 18:52:50;;;;;;;12.30;9.20;;;3.30;96.30;;;;;;4888833;29;20351;-78
2021/12/17 18:55:16;;;;;;;10.53;8.77;;;3.30;96.30;;;;;;4890754;29;20424;-78
2021/12/17 18:57:42;;;;;;;12.23;9.03;;;3.30;96.30;;;;;;4879044;29;20431;-81
2021/12/17 19:00:08;;;;;;;11.00;9.43;;;3.30;96.30;;;;;;4870369;29;20207;-80
2021/12/17 19:07:45;;;;;;;18.97;11.00;;;3.30;96.30;;;;;;5276165;23;20485;-79
2021/12/17 19:10:11;;;;;;;13.03;8.97;;;3.30;96.30;;;;;;4901175;29;20509;-79
2021/12/17 19:12:46;;;;;;;16.13;8.80;;;3.30;96.30;;;;;;4895621;29;20494;-79
2021/12/17 19:15:13;;;;;;;16.43;9.17;;;3.30;96.30;;;;;;4883340;29;20170;-80
2021/12/17 19:17:38;;;;;;;13.03;8.20;;;3.30;96.30;;;;;;4879012;29;20553;-80
2021/12/17 19:22:32;;;;;;;15.07;8.00;;;3.20;96.30;;;;;;4869444;29;20202;-78
2021/12/17 19:24:58;;;;;;;13.30;9.00;;;3.20;96.30;;;;;;4863575;29;20438;-79
2021/12/17 19:27:24;;;;;;;11.37;8.53;;;3.20;96.30;;;;;;4862535;29;20411;-79
2021/12/17 19:29:50;;;;;;;13.17;8.80;;;3.20;96.30;;;;;;4863194;29;20407;-80
2021/12/17 19:32:16;;;;;;;13.67;9.50;;;3.20;96.30;;;;;;4862057;29;20469;-80
2021/12/17 19:34:41;;;;;;;10.80;8.33;;;3.20;96.30;;;;;;4880161;29;20235;-79
2021/12/17 19:37:07;;;;;;;17.50;8.30;;;3.20;96.30;;;;;;4880411;29;20204;-79
2021/12/17 19:39:34;;;;;;;10.17;8.80;;;3.20;96.30;;;;;;4879916;29;20809;-79
2021/12/17 19:42:00;;;;;;;13.13;9.40;;;3.20;96.30;;;;;;4860709;29;20532;-79
2021/12/17 19:44:26;;;;;;;16.37;10.10;;;3.20;96.30;;;;;;4860908;29;20430;-79
2021/12/17 19:51:56;;;;;;;15.70;9.47;;;3.20;96.30;;;;;;4861922;29;20439;-79
2021/12/17 19:54:22;;;;;;;22.20;9.10;;;3.20;96.30;;;;;;4860956;29;20435;-79
2021/12/17 19:56:47;;;;;;;14.90;9.87;;;3.30;96.30;;;;;;4861633;29;20784;-79
2021/12/17 19:59:13;;;;;;;16.10;9.37;;;3.20;96.30;;;;;;4861876;29;20189;-79
2021/12/17 20:01:39;;;;;;;14.57;9.60;;;3.20;96.30;;;;;;4860720;29;20217;-79
2021/12/17 20:04:07;;;;;;;10.70;9.13;;;3.20;96.30;;;;;;4861660;29;20403;-79
2021/12/17 20:06:37;;;;;;;18.27;10.47;;;3.30;96.30;;;;;;4860151;29;20205;-79
2021/12/17 20:09:03;;;;;;;11.93;8.73;;;3.30;96.30;;;;;;4860283;29;20939;-79
2021/12/17 20:11:29;;;;;;;13.07;9.10;;;3.20;96.30;;;;;;4861432;29;20499;-79
2021/12/17 20:13:55;;;;;;;15.13;9.97;;;3.30;96.30;;;;;;4860174;29;20463;-79
2021/12/17 20:16:20;;;;;;;14.57;9.50;;;3.30;96.30;;;;;;4861297;29;20190;-79
2021/12/17 20:18:46;;;;;;;18.60;10.43;;;3.30;96.30;;;;;;4879354;29;20308;-79
2021/12/17 20:21:15;;;;;;;16.73;9.90;;;3.30;96.30;;;;;;4893552;29;20268;-79
2021/12/17 20:23:41;;;;;;;12.53;9.30;;;3.30;96.30;;;;;;4898668;29;20211;-79
2021/12/17 20:26:08;;;;;;;14.30;9.30;;;3.30;96.30;;;;;;4898131;29;20433;-79
2021/12/17 20:28:36;;;;;;;11.87;8.70;;;3.30;96.30;;;;;;4897141;29;20185;-79
2021/12/17 20:31:03;;;;;;;13.90;9.23;;;3.30;96.30;;;;;;4896871;29;20871;-79
2021/12/17 20:33:29;;;;;;;16.30;9.90;;;3.40;96.30;;;;;;4897016;29;20969;-79
2021/12/17 20:35:55;;;;;;;14.10;8.63;;;3.40;96.30;;;;;;4896846;29;20926;-79
2021/12/17 20:38:21;;;;;;;15.70;9.73;;;3.40;96.30;;;;;;4896929;29;20425;-79
2021/12/17 20:40:47;;;;;;;19.30;10.53;;;3.40;96.30;;;;;;4898001;29;20197;-79
2021/12/17 20:43:20;;;;;;;11.43;9.00;;;3.30;96.30;;;;;;4896780;29;20485;-79
2021/12/17 20:45:46;;;;;;;14.50;8.67;;;3.30;96.30;;;;;;4896468;29;20417;-79
2021/12/17 20:48:12;;;;;;;14.27;9.23;;;3.40;96.30;;;;;;4897831;29;20906;-79
2021/12/17 20:50:39;;;;;;;14.77;9.93;;;3.40;96.30;;;;;;4897907;29;20429;-79
2021/12/17 20:53:08;;;;;;;13.50;8.97;;;3.40;96.30;;;;;;4896608;29;20463;-79
2021/12/17 20:55:36;;;;;;;16.90;9.20;;;3.40;96.30;;;;;;4897852;29;20431;-79
2021/12/17 20:58:02;;;;;;;19.03;9.77;;;3.40;96.30;;;;;;4896560;29;20465;-79
2021/12/17 21:00:30;;;;;;;14.83;9.23;;;3.30;96.30;;;;;;4897709;29;20493;-79
2021/12/17 21:02:59;;;;;;;23.53;10.17;;;3.30;96.30;;;;;;4886814;29;20486;-80
2021/12/17 21:05:26;;;;;;;12.17;9.20;;;3.30;96.30;;;;;;4878167;29;20429;-79
2021/12/17 21:07:53;;;;;;;16.30;8.90;;;3.30;96.30;;;;;;4878992;29;20804;-80
2021/12/17 21:10:20;;;;;;;15.83;10.90;;;3.30;96.30;;;;;;4874791;29;20931;-79
2021/12/17 21:12:46;;;;;;;16.57;9.60;;;3.30;96.30;;;;;;4879019;29;20498;-79
2021/12/17 21:15:15;;;;;;;15.43;9.13;;;3.30;96.30;;;;;;4877747;29;20456;-79
2021/12/17 21:17:41;;;;;;;15.83;9.57;;;3.30;96.30;;;;;;4872607;29;20182;-79
2021/12/17 21:20:10;;;;;;;16.77;10.17;;;3.30;96.30;;;;;;4860329;29;20838;-79
2021/12/17 21:22:36;;;;;;;15.07;9.47;;;3.30;96.30;;;;;;4860489;29;20409;-79
2021/12/17 21:25:02;;;;;;;13.97;9.13;;;3.30;96.30;;;;;;4860556;29;20999;-79
2021/12/17 21:27:28;;;;;;;16.07;9.30;;;3.30;96.30;;;;;;4861377;29;20648;-80
2021/12/17 21:29:53;;;;;;;18.53;9.77;;;3.30;96.30;;;;;;4861774;29;20419;-79
2021/12/17 21:32:19;;;;;;;16.67;9.00;;;3.30;96.30;;;;;;4859871;29;20202;-79
2021/12/17 21:34:46;;;;;;;16.63;9.70;;;3.30;96.30;;;;;;4860098;29;20174;-79
2021/12/17 21:37:12;;;;;;;11.63;8.77;;;3.30;96.30;;;;;;4859371;29;20182;-79
2021/12/17 21:39:38;;;;;;;22.80;9.50;;;3.30;96.30;;;;;;4861702;29;20800;-79
2021/12/17 21:42:05;;;;;;;17.20;9.60;;;3.30;96.30;;;;;;4861536;29;20443;-79
2021/12/17 21:44:37;;;;;;;11.07;8.30;;;3.20;96.30;;;;;;4861234;29;20476;-79
2021/12/17 21:47:04;;;;;;;12.13;8.90;;;3.20;96.30;;;;;;4859069;29;20414;-79
2021/12/17 21:49:30;;;;;;;15.77;9.30;;;3.20;96.30;;;;;;4867662;29;20483;-80
2021/12/17 21:51:56;;;;;;;16.27;9.80;;;3.30;96.30;;;;;;4859974;29;20447;-78
2021/12/17 21:54:21;;;;;;;13.50;8.43;;;3.20;96.30;;;;;;4860116;29;20186;-79
2021/12/17 21:56:47;;;;;;;14.53;8.17;;;3.20;96.30;;;;;;4873812;29;20264;-79
2021/12/17 21:59:13;;;;;;;14.90;8.70;;;3.20;96.30;;;;;;4878089;29;20177;-79
2021/12/17 22:01:38;;;;;;;16.10;8.57;;;3.20;96.30;;;;;;4874263;29;20451;-80
2021/12/17 22:04:11;;;;;;;13.70;7.50;;;3.20;96.30;;;;;;4858094;29;20205;-79
2021/12/17 22:06:41;;;;;;;11.53;7.67;;;3.10;96.30;;;;;;4860520;29;20219;-79
2021/12/17 22:09:07;;;;;;;12.70;8.47;;;3.10;96.30;;;;;;4862297;29;20414;-79
2021/12/17 22:11:33;;;;;;;16.60;6.97;;;3.10;96.30;;;;;;4861659;29;20439;-79
2021/12/17 22:13:59;;;;;;;11.17;6.80;;;3.10;96.30;;;;;;4859926;29;21001;-79
2021/12/17 22:16:26;;;;;;;11.73;6.73;;;3.10;96.30;;;;;;4861461;29;20431;-79
2021/12/17 22:18:52;;;;;;;11.43;8.00;;;3.10;96.30;;;;;;4860586;29;20186;-79
2021/12/17 22:21:26;;;;;;;11.00;7.83;;;3.10;96.30;;;;;;4861927;29;20454;-79
2021/12/17 22:23:52;;;;;;;11.40;7.60;;;3.10;96.30;;;;;;4875970;29;20410;-79
2021/12/17 22:26:17;;;;;;;9.07;6.90;;;3.00;96.30;;;;;;4861453;29;20483;-79
2021/12/17 22:28:43;;;;;;;11.63;6.90;;;3.00;96.30;;;;;;4859469;29;20567;-79
2021/12/17 22:31:09;;;;;;;13.67;8.30;;;3.00;96.30;;;;;;4858950;29;20208;-79
2021/12/17 22:33:35;;;;;;;9.80;7.17;;;3.00;96.30;;;;;;4860373;29;20206;-79
2021/12/17 22:36:01;;;;;;;11.07;7.27;;;3.00;96.30;;;;;;4858803;29;20178;-79
2021/12/17 22:38:27;;;;;;;11.53;7.13;;;3.00;96.30;;;;;;4860289;29;20411;-79
2021/12/17 22:41:18;;;;;;;12.00;7.43;;;3.00;96.30;;;;;;4860601;29;20967;-79
2021/12/17 22:43:44;;;;;;;12.57;7.23;;;2.90;96.30;;;;;;4861132;29;20411;-79
2021/12/17 22:46:10;;;;;;;12.83;7.53;;;2.90;96.30;;;;;;4861096;29;20423;-79
2021/12/17 22:48:39;;;;;;;14.70;7.60;;;2.90;96.30;;;;;;4859538;29;20656;-79
2021/12/17 22:51:05;;;;;;;12.33;8.17;;;2.90;96.30;;;;;;4863916;29;20435;-79
2021/12/17 22:53:30;;;;;;;14.30;7.47;;;2.90;96.30;;;;;;4863971;29;20877;-79
2021/12/17 22:55:57;;;;;;;10.27;6.93;;;2.90;96.30;;;;;;4863989;29;20262;-79
2021/12/17 22:58:25;;;;;;;9.67;7.43;;;2.90;96.30;;;;;;4865223;29;20170;-79
2021/12/17 23:01:03;;;;;;;10.07;7.20;;;2.90;96.30;;;;;;4864604;29;20431;-79
2021/12/17 23:03:34;;;;;;;11.97;7.83;;;2.80;96.30;;;;;;4863244;29;20446;-79
2021/12/17 23:06:00;;;;;;;11.83;7.03;;;2.80;96.30;;;;;;4862841;29;21007;-79
2021/12/17 23:08:43;;;;;;;14.30;7.43;;;2.80;96.30;;;;;;4864564;29;20427;-79
2021/12/17 23:11:09;;;;;;;10.43;7.03;;;2.80;96.30;;;;;;4865327;29;20853;-80
2021/12/17 23:13:35;;;;;;;8.30;6.00;;;2.80;96.30;;;;;;4862918;29;20458;-79
2021/12/17 23:16:00;;;;;;;11.33;7.10;;;2.80;96.30;;;;;;4863292;29;20433;-79
2021/12/17 23:18:26;;;;;;;9.53;6.57;;;2.80;96.30;;;;;;4863325;29;20179;-79
2021/12/17 23:20:51;;;;;;;9.77;7.07;;;2.80;96.30;;;;;;4863055;29;20202;-79
2021/12/17 23:23:17;;;;;;;10.77;7.40;;;2.80;96.30;;;;;;4862247;29;20662;-79
2021/12/17 23:25:43;;;;;;;11.70;6.33;;;2.80;96.30;;;;;;4862909;29;20206;-79
2021/12/17 23:28:08;;;;;;;14.73;6.43;;;2.80;96.30;;;;;;4863156;29;20178;-79
2021/12/17 23:30:34;;;;;;;11.70;5.90;;;2.80;96.30;;;;;;4861943;29;20714;-79
2021/12/17 23:33:04;;;;;;;10.07;5.77;;;2.70;96.30;;;;;;4861762;29;20214;-79
2021/12/17 23:35:37;;;;;;;9.63;5.90;;;2.70;96.30;;;;;;4862241;29;20200;-79
2021/12/17 23:38:02;;;;;;;13.40;7.03;;;2.70;96.30;;;;;;4861586;29;20415;-79
2021/12/17 23:40:28;;;;;;;9.27;6.10;;;2.70;96.30;;;;;;4863261;29;20423;-79
2021/12/17 23:42:53;;;;;;;12.47;6.57;;;2.70;96.30;;;;;;4863233;29;20178;-79
2021/12/17 23:45:19;;;;;;;12.53;6.53;;;2.70;96.30;;;;;;4861442;29;20277;-79
2021/12/17 23:47:44;;;;;;;10.40;6.37;;;2.70;96.30;;;;;;4861400;29;20190;-79
2021/12/17 23:50:10;;;;;;;7.07;5.60;;;2.70;96.30;;;;;;4861590;29;20247;-79
2021/12/17 23:52:35;;;;;;;12.10;6.70;;;2.70;96.30;;;;;;4862903;29;20210;-79
2021/12/17 23:55:01;;;;;;;10.87;5.90;;;2.70;96.30;;;;;;4861615;29;20182;-80
2021/12/17 23:57:27;;;;;;;10.47;6.60;;;2.70;96.30;;;;;;4861175;29;20179;-80
2021/12/17 23:59:53;;;;;;;10.20;6.53;;;2.70;96.30;;;;;;4860991;29;20799;-79
